South Lynnfield, Massachusetts
Current Conditions -  °F | °C
As of 4:53 AM on Saturday 25 Oct 2014 (Local Time) from KBVY Reporting Station
Clear Clear  
Wind Chill: 45°   Ceiling: Unl
Heat Index: 45°   Visibility: 10mi
Dew Point: 40°   Wind: 3mph
Humidity: 82%   Direction: 270°W
Pressure: 29.74"   Gusts: NA
Location:  42.5359°N, 71.0388°W
Report Text: KBVY 250853Z AUTO 27003KT 10SM CLR 07/04 A2974 RMK AO2 SLP065 T00720044 55001
Loading
Personal Weather Stations






























Interactive Weather Map
Tropical Storm Tracking
New forecast layout! Learn more

10-Day Weather Forecast

Advertisements
Track Severe Weather on mobile